Etusivu
METAR-TAF:

METAR-TAF

Lentoasemat :

Ålesund, Norja

Leveyspiiri: 62-34N, Pituuspiiri: 006-07E, korkeus merenpinnasta: 2 m

Tämänhetkinen sää

Tämä raportti tehtiin 26 minuuttia sitten, kello 20.20 UTC
Tuuli 3 kn luoteesta, vaihdellen lännen/luoteen ja pohjoisen välillä
Lämpötila 15°C
Kosteus 94%
Ilmanpaine 1017 hPa
Näkyvyys 10 km tai enemmän
Hajanaisia pilviä 1000 ft:n korkeudessa

METAR: ENAL 212020Z 32003KT 290V010 9999 SCT010 15/14 Q1017

Aika: 22:46 (20:46 UTC)

Sääennuste

Tämä raportti tehtiin 32 minuuttia sitten, kello 20.14 UTC
Ennuste voimassa 21. päivästä klo 20 UTC - 21. päivään klo 22 UTC
Tuuli 7 kn eri suunnista
Näkyvyys 10 km tai enemmän
Hajonneita pilviä 1200 ft:n korkeudessa

TAF: ENAL 212014Z 2120/2122 VRB07KT 9999 BKN012

Säähavainnot ja -ennusteet yli 4000 lentoasemalta (METAR- ja TAF-raportit).

Käytössä olevat sääasemat on merkitty karttaan keltaisilla ja punaisilla pisteillä.

Aseta hiiri pisteen päälle nähdäksesi sääaseman nimen.

Klikkaa sitten nähdäksesi säähavainnot ja -ennusteet.

Kartan vaihtaminen: klikkaa mustalla rastilla varustettuja vihreitä pisteitä, niin voit zoomata sisään; viivalla varustettua vihreää pistettä, niin voit zoomata ulos tai vihreitä nuolia, niin pääset viereisille kartoille.


METAR-TAF: